Time;durP1;ratioP1;P1;durP2;ratioP2;P2;SDS_P1;SDS_P2;PMS_P1;PMS_P2;Temp;Humidity;BMP_temperature;BMP_pressure;BME280_temperature;BME280_humidity;BME280_pressure;Samples;Min_cycle;Max_cycle;Signal;HPM_P1;HPM_P2
2022/05/19 00:01:05;;;;;;;;;;;21.60;52.70;;;;;;473971;251;1209;-40
2022/05/19 00:03:06;;;;;;;;;;;21.60;52.70;;;;;;473605;250;1162;-40
2022/05/19 00:05:07;;;;;;;;;;;21.60;52.70;;;;;;473772;250;1181;-40
2022/05/19 00:07:08;;;;;;;;;;;21.70;52.70;;;;;;473607;250;1584;-41
2022/05/19 00:09:10;;;;;;;;;;;21.60;52.70;;;;;;473930;250;1348;-40
2022/05/19 00:11:11;;;;;;;;;;;21.60;52.70;;;;;;473551;250;2200;-40
2022/05/19 00:13:12;;;;;;;;;;;21.60;52.70;;;;;;473889;250;1272;-41
2022/05/19 00:15:14;;;;;;;;;;;21.60;52.60;;;;;;473714;250;1280;-40
2022/05/19 00:17:15;;;;;;;;;;;21.60;52.60;;;;;;473565;250;1209;-41
2022/05/19 00:19:18;;;;;;;;;;;21.70;52.70;;;;;;473613;250;1351;-40
2022/05/19 00:21:18;;;;;;;;;;;21.60;52.60;;;;;;473484;252;2339;-40
2022/05/19 00:23:19;;;;;;;;;;;21.60;52.70;;;;;;474064;250;1191;-40
2022/05/19 00:25:20;;;;;;;;;;;21.70;52.60;;;;;;473799;250;1128;-40
2022/05/19 00:27:22;;;;;;;;;;;21.60;52.50;;;;;;473563;250;1245;-40
2022/05/19 00:29:23;;;;;;;;;;;21.60;52.60;;;;;;473570;250;1330;-40
2022/05/19 00:31:26;;;;;;;;;;;21.60;52.70;;;;;;473875;250;2153;-40
2022/05/19 00:33:26;;;;;;;;;;;21.60;52.60;;;;;;473980;251;2031;-40
2022/05/19 00:35:27;;;;;;;;;;;21.60;52.70;;;;;;473946;250;1078;-41
2022/05/19 00:37:28;;;;;;;;;;;21.60;52.70;;;;;;473620;250;1305;-40
2022/05/19 00:39:30;;;;;;;;;;;21.60;52.70;;;;;;473668;250;1174;-41
2022/05/19 00:41:31;;;;;;;;;;;21.60;52.60;;;;;;473945;250;1234;-40
2022/05/19 00:43:32;;;;;;;;;;;21.60;52.70;;;;;;474018;250;1345;-40
2022/05/19 00:45:33;;;;;;;;;;;21.60;52.70;;;;;;473561;250;1193;-40
2022/05/19 00:47:35;;;;;;;;;;;21.60;52.70;;;;;;473508;250;1183;-40
2022/05/19 00:49:36;;;;;;;;;;;21.60;52.70;;;;;;473805;250;1355;-41
2022/05/19 00:51:38;;;;;;;;;;;21.60;52.60;;;;;;473609;250;2125;-40
2022/05/19 00:53:39;;;;;;;;;;;21.60;52.70;;;;;;473600;250;1294;-41
2022/05/19 00:55:40;;;;;;;;;;;21.60;52.70;;;;;;473641;250;1539;-41
2022/05/19 00:57:41;;;;;;;;;;;21.60;52.60;;;;;;473685;250;1177;-40
2022/05/19 00:59:43;;;;;;;;;;;21.60;52.60;;;;;;473817;250;1225;-40
2022/05/19 01:01:44;;;;;;;;;;;21.70;52.60;;;;;;473716;250;1306;-41
2022/05/19 01:03:46;;;;;;;;;;;21.70;52.60;;;;;;473650;250;1388;-40
2022/05/19 01:05:47;;;;;;;;;;;21.70;52.60;;;;;;473836;250;1292;-40
2022/05/19 01:07:49;;;;;;;;;;;21.70;52.60;;;;;;473853;250;1319;-41
2022/05/19 01:09:50;;;;;;;;;;;21.70;52.60;;;;;;473802;250;1176;-41
2022/05/19 01:11:55;;;;;;;;;;;21.70;52.50;;;;;;473730;250;2197;-40
2022/05/19 01:13:53;;;;;;;;;;;21.70;52.50;;;;;;473428;252;1553;-40
2022/05/19 01:15:54;;;;;;;;;;;21.70;52.60;;;;;;473634;250;1239;-40
2022/05/19 01:17:56;;;;;;;;;;;21.60;52.50;;;;;;473759;250;1243;-41
2022/05/19 01:19:58;;;;;;;;;;;21.70;52.60;;;;;;473623;250;1521;-41
2022/05/19 01:21:59;;;;;;;;;;;21.70;52.50;;;;;;473955;250;1234;-40
2022/05/19 01:24:00;;;;;;;;;;;21.70;52.50;;;;;;473633;250;1336;-40
2022/05/19 01:26:01;;;;;;;;;;;21.60;52.60;;;;;;473627;250;1238;-40
2022/05/19 01:28:03;;;;;;;;;;;21.60;52.60;;;;;;473601;250;2309;-40
2022/05/19 01:30:04;;;;;;;;;;;21.60;52.60;;;;;;473728;250;1229;-40
2022/05/19 01:32:05;;;;;;;;;;;21.60;52.60;;;;;;473492;250;2209;-40
2022/05/19 01:34:07;;;;;;;;;;;21.60;52.50;;;;;;473776;250;1303;-40
2022/05/19 01:36:08;;;;;;;;;;;21.60;52.60;;;;;;473929;250;1336;-40
2022/05/19 01:38:09;;;;;;;;;;;21.60;52.60;;;;;;473883;250;1185;-40
2022/05/19 01:40:11;;;;;;;;;;;21.60;52.60;;;;;;474043;250;1214;-40
2022/05/19 01:42:12;;;;;;;;;;;21.70;52.70;;;;;;473559;250;1216;-40
2022/05/19 01:44:14;;;;;;;;;;;21.70;52.60;;;;;;473905;250;1266;-40
2022/05/19 01:46:15;;;;;;;;;;;21.70;52.40;;;;;;473596;250;1221;-40
2022/05/19 01:48:16;;;;;;;;;;;21.70;52.50;;;;;;473683;250;1404;-41
2022/05/19 01:50:18;;;;;;;;;;;21.70;52.60;;;;;;473849;250;1224;-40
2022/05/19 01:52:19;;;;;;;;;;;21.70;52.60;;;;;;473802;250;2138;-40
2022/05/19 01:54:20;;;;;;;;;;;21.60;52.50;;;;;;473651;250;1645;-40
2022/05/19 01:56:22;;;;;;;;;;;21.60;52.70;;;;;;473582;250;1286;-41
2022/05/19 01:58:23;;;;;;;;;;;21.60;52.70;;;;;;473735;250;1700;-41
2022/05/19 02:00:25;;;;;;;;;;;21.60;52.60;;;;;;473617;250;1274;-40
2022/05/19 02:02:26;;;;;;;;;;;21.60;52.60;;;;;;473772;250;1236;-41
2022/05/19 02:04:27;;;;;;;;;;;21.70;52.60;;;;;;473996;250;1392;-41
2022/05/19 02:06:29;;;;;;;;;;;21.70;52.50;;;;;;473997;250;1302;-40
2022/05/19 02:08:30;;;;;;;;;;;21.60;52.50;;;;;;473532;250;1223;-40
2022/05/19 02:10:31;;;;;;;;;;;21.60;52.60;;;;;;473884;250;1315;-40
2022/05/19 02:12:33;;;;;;;;;;;21.60;52.60;;;;;;473541;250;2206;-40
2022/05/19 02:14:34;;;;;;;;;;;21.60;52.60;;;;;;473877;250;2056;-40
2022/05/19 02:16:35;;;;;;;;;;;21.60;52.60;;;;;;473576;250;1260;-40
2022/05/19 02:18:36;;;;;;;;;;;21.70;52.50;;;;;;473483;250;1180;-41
2022/05/19 02:20:38;;;;;;;;;;;21.60;52.50;;;;;;473446;252;1953;-40
2022/05/19 02:22:39;;;;;;;;;;;21.60;52.50;;;;;;473782;250;1241;-40
2022/05/19 02:24:41;;;;;;;;;;;21.60;52.50;;;;;;473714;250;1256;-41
2022/05/19 02:26:42;;;;;;;;;;;21.60;52.60;;;;;;473672;250;1285;-40
2022/05/19 02:28:44;;;;;;;;;;;21.60;52.60;;;;;;473777;250;1189;-40
2022/05/19 02:30:45;;;;;;;;;;;21.60;52.50;;;;;;473694;250;1213;-40
2022/05/19 02:32:46;;;;;;;;;;;21.70;52.50;;;;;;473501;250;2189;-41
2022/05/19 02:34:47;;;;;;;;;;;21.60;52.60;;;;;;473674;250;1251;-40
2022/05/19 02:36:49;;;;;;;;;;;21.60;52.70;;;;;;473846;250;1256;-40
2022/05/19 02:38:50;;;;;;;;;;;21.60;52.70;;;;;;473528;250;1275;-41
2022/05/19 02:40:51;;;;;;;;;;;21.50;52.70;;;;;;473567;250;1285;-40
2022/05/19 02:42:53;;;;;;;;;;;21.50;52.70;;;;;;473518;250;2260;-40
2022/05/19 02:44:54;;;;;;;;;;;21.50;52.80;;;;;;473692;250;1127;-40
2022/05/19 02:46:56;;;;;;;;;;;21.50;52.80;;;;;;473550;250;1260;-40
2022/05/19 02:48:57;;;;;;;;;;;21.50;52.80;;;;;;474024;250;1056;-41
2022/05/19 02:50:59;;;;;;;;;;;21.50;52.80;;;;;;473578;250;1240;-40
2022/05/19 02:53:00;;;;;;;;;;;21.50;52.80;;;;;;473508;250;2189;-40
2022/05/19 02:55:01;;;;;;;;;;;21.50;52.70;;;;;;473716;250;1087;-40
2022/05/19 02:57:03;;;;;;;;;;;21.60;52.70;;;;;;473461;250;1192;-41
2022/05/19 02:59:04;;;;;;;;;;;21.50;52.70;;;;;;473533;250;1248;-41
2022/05/19 03:01:06;;;;;;;;;;;21.60;52.70;;;;;;473607;250;1258;-40
2022/05/19 03:03:07;;;;;;;;;;;21.60;52.70;;;;;;473550;250;1190;-40
2022/05/19 03:05:08;;;;;;;;;;;21.50;52.70;;;;;;473907;250;1311;-40
2022/05/19 03:07:09;;;;;;;;;;;21.50;52.70;;;;;;473833;250;1156;-40
2022/05/19 03:09:11;;;;;;;;;;;21.50;52.80;;;;;;473902;250;1236;-40
2022/05/19 03:11:12;;;;;;;;;;;21.50;52.70;;;;;;473408;250;1339;-40
2022/05/19 03:13:14;;;;;;;;;;;21.50;52.70;;;;;;473829;250;2127;-40
2022/05/19 03:15:15;;;;;;;;;;;21.50;52.70;;;;;;473580;250;1213;-40
2022/05/19 03:17:16;;;;;;;;;;;21.50;52.80;;;;;;473617;250;1208;-40
2022/05/19 03:19:17;;;;;;;;;;;21.50;52.80;;;;;;473625;250;1191;-41
2022/05/19 03:21:19;;;;;;;;;;;21.50;52.70;;;;;;473461;250;1305;-40
2022/05/19 03:23:20;;;;;;;;;;;21.50;52.70;;;;;;473539;250;1158;-40
2022/05/19 03:25:21;;;;;;;;;;;21.50;52.80;;;;;;473507;250;1671;-40
2022/05/19 03:27:23;;;;;;;;;;;21.50;52.70;;;;;;473564;250;1418;-40
2022/05/19 03:29:24;;;;;;;;;;;21.50;52.80;;;;;;473530;250;1208;-40
2022/05/19 03:31:25;;;;;;;;;;;21.40;52.80;;;;;;473734;250;1560;-40
2022/05/19 03:33:27;;;;;;;;;;;21.50;52.80;;;;;;473852;250;2135;-40
2022/05/19 03:35:28;;;;;;;;;;;21.50;52.80;;;;;;473591;250;1176;-40
2022/05/19 03:37:29;;;;;;;;;;;21.50;52.80;;;;;;473805;250;1310;-40
2022/05/19 03:39:31;;;;;;;;;;;21.50;52.80;;;;;;473757;250;1419;-40
2022/05/19 03:41:32;;;;;;;;;;;21.50;52.80;;;;;;473456;250;1311;-40
2022/05/19 03:43:33;;;;;;;;;;;21.40;52.90;;;;;;473579;250;1283;-40
2022/05/19 03:45:34;;;;;;;;;;;21.50;52.90;;;;;;473570;250;1225;-40
2022/05/19 03:47:36;;;;;;;;;;;21.40;52.80;;;;;;473491;250;1249;-40
2022/05/19 03:49:37;;;;;;;;;;;21.50;52.80;;;;;;473662;250;1373;-41
2022/05/19 03:51:39;;;;;;;;;;;21.50;52.70;;;;;;473375;250;2202;-40
2022/05/19 03:53:40;;;;;;;;;;;21.50;52.80;;;;;;473872;250;1220;-40
2022/05/19 03:55:41;;;;;;;;;;;21.50;52.80;;;;;;473464;250;1292;-40
2022/05/19 03:57:43;;;;;;;;;;;21.50;52.80;;;;;;473411;250;1491;-40
2022/05/19 03:59:44;;;;;;;;;;;21.60;52.70;;;;;;473846;250;1271;-41
2022/05/19 04:01:45;;;;;;;;;;;21.60;52.60;;;;;;473425;250;1235;-40
2022/05/19 04:03:47;;;;;;;;;;;21.50;52.50;;;;;;473724;250;1189;-40
2022/05/19 04:05:48;;;;;;;;;;;21.50;52.60;;;;;;473480;250;1380;-40
2022/05/19 04:07:49;;;;;;;;;;;21.50;52.60;;;;;;473451;250;1584;-40
2022/05/19 04:09:51;;;;;;;;;;;21.60;52.60;;;;;;473608;250;1274;-40
2022/05/19 04:11:52;;;;;;;;;;;21.50;52.50;;;;;;473570;250;2193;-40
2022/05/19 04:13:53;;;;;;;;;;;21.60;52.60;;;;;;473529;250;1245;-41
2022/05/19 04:15:54;;;;;;;;;;;21.60;52.50;;;;;;473634;250;1643;-40
2022/05/19 04:17:56;;;;;;;;;;;21.60;52.50;;;;;;473533;250;1267;-40
2022/05/19 04:19:57;;;;;;;;;;;21.60;52.50;;;;;;473874;250;1188;-40
2022/05/19 04:21:58;;;;;;;;;;;21.60;52.50;;;;;;473532;250;1298;-41
2022/05/19 04:24:00;;;;;;;;;;;21.60;52.50;;;;;;473775;250;1290;-41
2022/05/19 04:26:02;;;;;;;;;;;21.60;52.50;;;;;;473479;250;1287;-40
2022/05/19 04:28:03;;;;;;;;;;;21.60;52.50;;;;;;473420;250;1330;-41
2022/05/19 04:30:04;;;;;;;;;;;21.60;52.60;;;;;;473477;250;1487;-40
2022/05/19 04:32:06;;;;;;;;;;;21.60;52.50;;;;;;473298;250;2200;-40
2022/05/19 04:34:07;;;;;;;;;;;21.60;52.60;;;;;;473419;250;1281;-41
2022/05/19 04:36:08;;;;;;;;;;;21.60;52.60;;;;;;473320;250;1493;-41
2022/05/19 04:38:10;;;;;;;;;;;21.60;52.50;;;;;;473489;250;1613;-41
2022/05/19 04:40:11;;;;;;;;;;;21.60;52.50;;;;;;473730;250;1193;-41
2022/05/19 04:42:12;;;;;;;;;;;21.60;52.50;;;;;;473544;250;1292;-40
2022/05/19 04:44:14;;;;;;;;;;;21.60;52.50;;;;;;473710;250;1173;-40
2022/05/19 04:46:15;;;;;;;;;;;21.60;52.50;;;;;;473426;250;1262;-40
2022/05/19 04:48:16;;;;;;;;;;;21.60;52.40;;;;;;473308;250;1259;-41
2022/05/19 04:50:17;;;;;;;;;;;21.60;52.40;;;;;;473327;250;1214;-40
2022/05/19 04:52:19;;;;;;;;;;;21.60;52.40;;;;;;473650;250;2198;-41
2022/05/19 04:54:20;;;;;;;;;;;21.60;52.40;;;;;;473575;250;1257;-40
2022/05/19 04:56:21;;;;;;;;;;;21.60;52.50;;;;;;473632;250;1257;-40
2022/05/19 04:58:23;;;;;;;;;;;21.60;52.50;;;;;;473839;250;1240;-40
2022/05/19 05:00:24;;;;;;;;;;;21.50;52.60;;;;;;473517;250;1527;-40
2022/05/19 05:02:25;;;;;;;;;;;21.50;52.60;;;;;;473340;250;1244;-41
2022/05/19 05:04:27;;;;;;;;;;;21.60;52.60;;;;;;473396;250;1251;-40
2022/05/19 05:06:28;;;;;;;;;;;21.60;52.50;;;;;;473500;250;1334;-40
2022/05/19 05:08:29;;;;;;;;;;;21.60;52.40;;;;;;473409;250;1175;-41
2022/05/19 05:10:31;;;;;;;;;;;21.60;52.40;;;;;;473256;250;1441;-40
2022/05/19 05:12:32;;;;;;;;;;;21.70;52.40;;;;;;473399;250;2209;-40
2022/05/19 05:14:33;;;;;;;;;;;21.60;52.30;;;;;;473394;250;1172;-41
2022/05/19 05:16:35;;;;;;;;;;;21.60;52.40;;;;;;473483;250;1194;-40
2022/05/19 05:18:36;;;;;;;;;;;21.60;52.50;;;;;;473337;250;1296;-40
2022/05/19 05:20:37;;;;;;;;;;;21.60;52.40;;;;;;473583;250;1100;-40
2022/05/19 05:22:39;;;;;;;;;;;21.60;52.40;;;;;;473390;250;1110;-40
2022/05/19 05:24:40;;;;;;;;;;;21.60;52.50;;;;;;473345;250;1067;-40
2022/05/19 05:26:42;;;;;;;;;;;21.60;52.50;;;;;;473151;250;1196;-41
2022/05/19 05:28:43;;;;;;;;;;;21.70;52.40;;;;;;473187;250;1234;-41
2022/05/19 05:30:44;;;;;;;;;;;21.60;52.30;;;;;;473236;250;1235;-41
2022/05/19 05:32:45;;;;;;;;;;;21.60;52.30;;;;;;473195;250;2205;-41
2022/05/19 05:34:47;;;;;;;;;;;21.60;52.40;;;;;;473197;250;1242;-40
2022/05/19 05:36:48;;;;;;;;;;;21.60;52.40;;;;;;473604;250;1242;-40
2022/05/19 05:38:49;;;;;;;;;;;21.60;52.40;;;;;;473343;250;1177;-40
2022/05/19 05:40:51;;;;;;;;;;;21.60;52.30;;;;;;473499;250;1286;-40
2022/05/19 05:42:52;;;;;;;;;;;21.60;52.40;;;;;;473352;250;1271;-40
2022/05/19 05:44:53;;;;;;;;;;;21.60;52.50;;;;;;473175;250;1305;-41
2022/05/19 05:46:55;;;;;;;;;;;21.60;52.50;;;;;;473273;250;1200;-40
2022/05/19 05:48:56;;;;;;;;;;;21.60;52.40;;;;;;473028;250;1242;-40
2022/05/19 05:50:58;;;;;;;;;;;21.60;52.40;;;;;;473340;250;1237;-40
2022/05/19 05:52:59;;;;;;;;;;;21.60;52.50;;;;;;473259;250;2197;-41
2022/05/19 05:55:00;;;;;;;;;;;21.60;52.50;;;;;;473313;250;1149;-40
2022/05/19 05:57:02;;;;;;;;;;;21.60;52.40;;;;;;473295;250;1156;-41
2022/05/19 05:59:03;;;;;;;;;;;21.60;52.40;;;;;;473172;250;1092;-40
2022/05/19 06:01:04;;;;;;;;;;;21.60;52.50;;;;;;473360;250;1211;-40
2022/05/19 06:03:05;;;;;;;;;;;21.60;52.50;;;;;;473118;250;1200;-40
2022/05/19 06:05:07;;;;;;;;;;;21.60;52.50;;;;;;473346;250;1264;-41
2022/05/19 06:07:09;;;;;;;;;;;21.50;52.60;;;;;;473033;250;1280;-41
2022/05/19 06:09:09;;;;;;;;;;;21.60;52.60;;;;;;472909;251;2188;-40
2022/05/19 06:11:11;;;;;;;;;;;21.60;52.50;;;;;;472956;250;1142;-40
2022/05/19 06:13:12;;;;;;;;;;;21.60;52.50;;;;;;472900;250;2197;-40
2022/05/19 06:15:14;;;;;;;;;;;21.60;52.50;;;;;;472930;250;1222;-40
2022/05/19 06:17:15;;;;;;;;;;;21.60;52.50;;;;;;473060;250;1243;-40
2022/05/19 06:19:18;;;;;;;;;;;21.60;52.40;;;;;;472958;250;1135;-40
2022/05/19 06:21:18;;;;;;;;;;;21.60;52.30;;;;;;472910;250;2131;-40
2022/05/19 06:23:19;;;;;;;;;;;21.60;52.30;;;;;;473082;250;1300;-40
2022/05/19 06:25:21;;;;;;;;;;;21.60;52.30;;;;;;473208;250;1500;-40
2022/05/19 06:27:22;;;;;;;;;;;21.60;52.30;;;;;;473054;250;1723;-41
2022/05/19 06:29:23;;;;;;;;;;;21.60;52.30;;;;;;473169;250;1332;-41
2022/05/19 06:31:25;;;;;;;;;;;21.60;52.20;;;;;;473032;247;1147;-40
2022/05/19 06:33:26;;;;;;;;;;;21.60;52.30;;;;;;472916;250;2133;-40
2022/05/19 06:35:28;;;;;;;;;;;21.60;52.30;;;;;;473043;250;1248;-40
2022/05/19 06:37:29;;;;;;;;;;;21.60;52.40;;;;;;473054;250;1255;-41
2022/05/19 06:39:30;;;;;;;;;;;21.60;52.40;;;;;;473473;250;2346;-41
2022/05/19 06:43:51;;;;;;;;;;;21.50;52.30;;;;;;472624;251;1235;-41
2022/05/19 06:45:52;;;;;;;;;;;21.60;52.30;;;;;;472770;250;1406;-40
2022/05/19 06:47:53;;;;;;;;;;;21.60;52.20;;;;;;472926;250;1257;-41
2022/05/19 06:49:55;;;;;;;;;;;21.60;52.20;;;;;;472976;250;1578;-40
2022/05/19 06:51:56;;;;;;;;;;;21.60;52.20;;;;;;472664;250;1571;-41
2022/05/19 06:53:58;;;;;;;;;;;21.60;52.20;;;;;;472691;250;2197;-40
2022/05/19 06:58:02;;;;;;;;;;;21.60;52.30;;;;;;478872;244;1109;-85
2022/05/19 07:00:04;;;;;;;;;;;21.50;52.20;;;;;;478872;246;1128;-86
2022/05/19 07:02:05;;;;;;;;;;;21.50;52.20;;;;;;475544;241;3823;-43
2022/05/19 07:04:07;;;;;;;;;;;21.50;52.30;;;;;;466755;255;1609;-39
2022/05/19 07:06:08;;;;;;;;;;;21.50;52.40;;;;;;465530;255;1294;-40
2022/05/19 07:08:09;;;;;;;;;;;21.50;52.40;;;;;;467069;255;1120;-40
2022/05/19 07:10:10;;;;;;;;;;;21.50;52.40;;;;;;465655;255;1082;-39
2022/05/19 07:12:12;;;;;;;;;;;21.50;52.30;;;;;;466933;255;1059;-39
2022/05/19 07:14:14;;;;;;;;;;;21.50;52.30;;;;;;465486;255;2194;-39
2022/05/19 07:16:15;;;;;;;;;;;21.50;52.30;;;;;;466883;255;1823;-39
2022/05/19 07:18:16;;;;;;;;;;;21.50;52.30;;;;;;464952;255;1246;-39
2022/05/19 07:22:37;;;;;;;;;;;21.50;52.30;;;;;;465185;255;1138;-39
2022/05/19 07:24:38;;;;;;;;;;;21.50;52.30;;;;;;467107;255;1077;-40
2022/05/19 07:26:39;;;;;;;;;;;21.50;52.30;;;;;;465568;255;1100;-39
2022/05/19 07:28:41;;;;;;;;;;;21.50;52.30;;;;;;466636;254;1293;-39
2022/05/19 07:30:43;;;;;;;;;;;21.50;52.30;;;;;;464741;255;1300;-39
2022/05/19 07:32:43;;;;;;;;;;;21.50;52.20;;;;;;466893;254;1904;-39
2022/05/19 07:34:44;;;;;;;;;;;21.50;52.20;;;;;;465683;255;2201;-40
2022/05/19 07:36:46;;;;;;;;;;;21.50;52.20;;;;;;467523;253;1124;-40
2022/05/19 07:38:47;;;;;;;;;;;21.50;52.30;;;;;;465635;255;1122;-39
2022/05/19 07:40:49;;;;;;;;;;;21.50;52.30;;;;;;467113;254;1430;-39
2022/05/19 07:42:50;;;;;;;;;;;21.50;52.30;;;;;;464648;255;1197;-40
2022/05/19 07:44:52;;;;;;;;;;;21.50;52.20;;;;;;466557;255;1229;-39
2022/05/19 07:46:53;;;;;;;;;;;21.50;52.10;;;;;;464935;255;1255;-39
2022/05/19 07:48:54;;;;;;;;;;;21.50;52.30;;;;;;467302;254;1196;-39
2022/05/19 07:50:56;;;;;;;;;;;21.50;52.30;;;;;;465594;255;1105;-39
2022/05/19 07:52:57;;;;;;;;;;;21.50;52.20;;;;;;467057;255;1042;-40
2022/05/19 07:54:58;;;;;;;;;;;21.50;52.30;;;;;;465643;255;2186;-39
2022/05/19 07:57:00;;;;;;;;;;;21.50;52.10;;;;;;467385;254;1193;-40
2022/05/19 07:59:01;;;;;;;;;;;21.50;52.20;;;;;;464825;255;1220;-39
2022/05/19 08:01:02;;;;;;;;;;;21.50;52.30;;;;;;466988;254;1214;-39
2022/05/19 08:03:04;;;;;;;;;;;21.50;52.20;;;;;;465232;255;1288;-39
2022/05/19 08:05:05;;;;;;;;;;;21.50;52.10;;;;;;467363;254;1117;-40
2022/05/19 08:07:06;;;;;;;;;;;21.50;52.20;;;;;;465097;255;1090;-39
2022/05/19 08:11:28;;;;;;;;;;;21.50;52.20;;;;;;465021;256;2030;-40
2022/05/19 08:15:48;;;;;;;;;;;21.60;51.90;;;;;;465182;255;1152;-39
2022/05/19 08:17:50;;;;;;;;;;;21.60;52.00;;;;;;467209;254;1162;-39
2022/05/19 08:19:51;;;;;;;;;;;21.70;51.90;;;;;;465539;255;1123;-39
2022/05/19 08:21:52;;;;;;;;;;;21.70;51.80;;;;;;467095;255;1061;-39
2022/05/19 08:23:54;;;;;;;;;;;21.70;51.80;;;;;;465568;255;1099;-39
2022/05/19 08:25:55;;;;;;;;;;;21.70;51.70;;;;;;467395;254;1243;-39
2022/05/19 08:27:56;;;;;;;;;;;21.70;51.70;;;;;;464924;255;1082;-39
2022/05/19 08:29:58;;;;;;;;;;;21.80;51.60;;;;;;466719;255;1104;-39
2022/05/19 08:31:59;;;;;;;;;;;21.70;51.70;;;;;;465199;255;1263;-40
2022/05/19 08:34:03;;;;;;;;;;;21.70;51.80;;;;;;466558;254;2208;-40
2022/05/19 08:36:02;;;;;;;;;;;21.70;51.70;;;;;;464633;256;2126;-40
2022/05/19 08:38:03;;;;;;;;;;;21.70;51.70;;;;;;466381;255;1173;-40
2022/05/19 08:40:05;;;;;;;;;;;21.70;51.70;;;;;;464582;255;1094;-39
2022/05/19 08:42:06;;;;;;;;;;;21.70;51.70;;;;;;467040;255;1333;-40
2022/05/19 08:44:08;;;;;;;;;;;21.70;51.60;;;;;;464922;255;1385;-39
2022/05/19 08:46:09;;;;;;;;;;;21.80;51.70;;;;;;467431;254;1198;-39
2022/05/19 08:48:11;;;;;;;;;;;21.80;51.50;;;;;;464916;255;1066;-40
2022/05/19 08:50:12;;;;;;;;;;;21.80;51.70;;;;;;467199;254;894;-39
2022/05/19 08:52:14;;;;;;;;;;;21.70;51.70;;;;;;465479;255;1186;-39
2022/05/19 08:54:15;;;;;;;;;;;21.80;51.70;;;;;;466911;255;2200;-40
2022/05/19 08:56:17;;;;;;;;;;;21.80;51.60;;;;;;465572;255;1105;-40
2022/05/19 08:58:18;;;;;;;;;;;21.80;51.70;;;;;;467023;255;1021;-39
2022/05/19 09:00:19;;;;;;;;;;;21.80;51.80;;;;;;465703;255;1122;-40
2022/05/19 09:02:20;;;;;;;;;;;21.80;51.80;;;;;;466920;255;1067;-39
2022/05/19 09:04:22;;;;;;;;;;;21.80;51.90;;;;;;464716;255;1136;-39
2022/05/19 09:06:23;;;;;;;;;;;21.80;51.90;;;;;;466937;254;1326;-40
2022/05/19 09:08:25;;;;;;;;;;;21.80;51.90;;;;;;465191;255;1029;-39
2022/05/19 09:10:26;;;;;;;;;;;21.80;51.90;;;;;;467098;254;1233;-39
2022/05/19 09:12:27;;;;;;;;;;;21.80;51.90;;;;;;465214;255;1219;-39
2022/05/19 09:14:29;;;;;;;;;;;21.80;51.90;;;;;;467108;254;2201;-39
2022/05/19 09:16:30;;;;;;;;;;;21.80;51.90;;;;;;464830;255;1346;-39
2022/05/19 09:18:31;;;;;;;;;;;21.80;51.80;;;;;;467016;254;1168;-40
2022/05/19 09:20:32;;;;;;;;;;;21.90;51.80;;;;;;464856;255;1260;-39
2022/05/19 09:22:34;;;;;;;;;;;21.90;51.70;;;;;;466783;255;1055;-39
2022/05/19 09:24:35;;;;;;;;;;;21.90;51.60;;;;;;465380;255;1016;-39
2022/05/19 09:26:36;;;;;;;;;;;21.90;51.70;;;;;;467085;254;1049;-39
2022/05/19 09:28:38;;;;;;;;;;;22.00;51.70;;;;;;464895;254;1113;-40
2022/05/19 09:30:39;;;;;;;;;;;22.00;51.70;;;;;;467149;254;1098;-40
2022/05/19 09:32:45;;;;;;;;;;;21.90;51.70;;;;;;464814;255;1049;-39
2022/05/19 09:34:42;;;;;;;;;;;21.90;51.70;;;;;;466368;255;2356;-39
2022/05/19 09:36:49;;;;;;;;;;;21.90;51.80;;;;;;465250;255;1083;-39
2022/05/19 09:38:45;;;;;;;;;;;21.90;51.80;;;;;;466399;255;2040;-39
2022/05/19 09:40:46;;;;;;;;;;;21.90;51.80;;;;;;464844;255;1329;-39
2022/05/19 09:42:48;;;;;;;;;;;21.90;51.80;;;;;;466725;255;1249;-39
2022/05/19 09:44:50;;;;;;;;;;;21.80;51.80;;;;;;465314;255;1145;-39
2022/05/19 09:46:50;;;;;;;;;;;21.80;51.80;;;;;;466909;255;2156;-39
2022/05/19 09:48:52;;;;;;;;;;;21.90;51.90;;;;;;465430;255;1227;-40
2022/05/19 09:50:54;;;;;;;;;;;21.90;51.80;;;;;;467119;255;1120;-39
2022/05/19 09:52:54;;;;;;;;;;;21.90;51.80;;;;;;465505;256;2200;-39
2022/05/19 09:54:56;;;;;;;;;;;21.90;51.80;;;;;;467307;254;2181;-39
2022/05/19 09:56:57;;;;;;;;;;;21.90;51.80;;;;;;465425;256;1088;-39
2022/05/19 09:58:59;;;;;;;;;;;21.90;51.90;;;;;;466810;255;1146;-39
2022/05/19 10:01:00;;;;;;;;;;;21.90;51.90;;;;;;464939;255;1238;-40
2022/05/19 10:03:01;;;;;;;;;;;21.90;51.90;;;;;;466756;254;1257;-39
2022/05/19 10:05:03;;;;;;;;;;;21.90;52.00;;;;;;464606;255;1225;-39
2022/05/19 10:07:04;;;;;;;;;;;21.90;51.90;;;;;;466560;254;1358;-39
2022/05/19 10:09:06;;;;;;;;;;;21.90;51.90;;;;;;465002;255;1108;-40
2022/05/19 10:11:07;;;;;;;;;;;21.90;52.00;;;;;;467295;254;1047;-40
2022/05/19 10:13:08;;;;;;;;;;;22.00;51.90;;;;;;465149;255;1020;-39
2022/05/19 10:15:10;;;;;;;;;;;22.00;51.80;;;;;;467096;254;2204;-39
2022/05/19 10:17:12;;;;;;;;;;;22.00;51.80;;;;;;465170;256;1754;-39
2022/05/19 10:19:12;;;;;;;;;;;22.00;51.80;;;;;;467033;255;2162;-39
2022/05/19 10:21:13;;;;;;;;;;;22.00;51.80;;;;;;465132;255;1084;-39
2022/05/19 10:23:15;;;;;;;;;;;22.00;51.90;;;;;;466998;254;1168;-40
2022/05/19 10:25:17;;;;;;;;;;;22.00;51.90;;;;;;464712;256;2222;-39
2022/05/19 10:31:55;;;;;;;;;;;22.00;52.00;;;;;;467017;254;1493;-39
2022/05/19 10:33:57;;;;;;;;;;;21.90;52.00;;;;;;464656;255;1398;-39
2022/05/19 10:35:58;;;;;;;;;;;22.00;52.00;;;;;;466433;255;2216;-39
2022/05/19 10:37:59;;;;;;;;;;;22.00;51.90;;;;;;464949;255;1233;-39
2022/05/19 10:40:01;;;;;;;;;;;22.00;51.90;;;;;;466768;254;1176;-40
2022/05/19 10:42:02;;;;;;;;;;;22.00;51.90;;;;;;464883;255;1325;-39
2022/05/19 10:44:03;;;;;;;;;;;22.00;51.90;;;;;;467139;254;1140;-40
2022/05/19 10:46:05;;;;;;;;;;;22.00;52.00;;;;;;464907;255;1240;-39
2022/05/19 10:48:06;;;;;;;;;;;22.00;52.20;;;;;;466726;254;1075;-39
2022/05/19 10:50:07;;;;;;;;;;;22.00;52.20;;;;;;464758;255;1078;-40
2022/05/19 10:52:08;;;;;;;;;;;22.00;52.20;;;;;;466963;254;1366;-40
2022/05/19 10:54:10;;;;;;;;;;;22.00;52.30;;;;;;464919;255;2213;-39
2022/05/19 10:56:11;;;;;;;;;;;22.00;52.20;;;;;;466829;254;1370;-39
2022/05/19 10:58:12;;;;;;;;;;;22.00;52.20;;;;;;464734;255;1300;-40
2022/05/19 11:00:15;;;;;;;;;;;22.00;52.30;;;;;;466589;254;1182;-39
2022/05/19 11:02:15;;;;;;;;;;;22.00;52.10;;;;;;464917;256;2376;-40
2022/05/19 11:04:16;;;;;;;;;;;22.00;52.20;;;;;;466657;255;1375;-39
2022/05/19 11:06:18;;;;;;;;;;;22.00;52.30;;;;;;465175;255;1258;-39
2022/05/19 11:08:19;;;;;;;;;;;22.00;52.40;;;;;;466547;255;1294;-39
2022/05/19 11:10:20;;;;;;;;;;;22.00;52.30;;;;;;464988;255;1091;-39
2022/05/19 11:12:22;;;;;;;;;;;22.00;52.20;;;;;;466795;254;1045;-40
2022/05/19 11:14:23;;;;;;;;;;;21.90;52.40;;;;;;465034;255;2218;-39
2022/05/19 11:16:24;;;;;;;;;;;21.90;52.40;;;;;;467106;254;1142;-39
2022/05/19 11:18:26;;;;;;;;;;;21.90;52.40;;;;;;464801;255;1249;-40
2022/05/19 11:20:27;;;;;;;;;;;22.00;52.50;;;;;;466739;254;1199;-39
2022/05/19 11:22:28;;;;;;;;;;;22.00;52.50;;;;;;464899;255;1078;-39
2022/05/19 11:24:30;;;;;;;;;;;22.00;52.40;;;;;;466662;255;1294;-39
2022/05/19 11:26:31;;;;;;;;;;;22.00;52.50;;;;;;464880;255;1169;-39
2022/05/19 11:28:32;;;;;;;;;;;21.90;52.60;;;;;;466292;255;1205;-39
2022/05/19 11:30:34;;;;;;;;;;;21.90;52.60;;;;;;464531;255;1084;-39
2022/05/19 11:32:35;;;;;;;;;;;21.90;52.60;;;;;;466763;255;1324;-39
2022/05/19 11:34:37;;;;;;;;;;;21.90;52.80;;;;;;464958;255;2201;-39
2022/05/19 11:36:38;;;;;;;;;;;21.90;52.70;;;;;;466679;254;1244;-39
2022/05/19 11:38:41;;;;;;;;;;;21.90;52.90;;;;;;464867;255;1208;-39
2022/05/19 11:40:42;;;;;;;;;;;21.90;52.90;;;;;;466821;255;2170;-39
2022/05/19 11:42:42;;;;;;;;;;;21.90;52.90;;;;;;464891;256;1989;-40
2022/05/19 11:44:43;;;;;;;;;;;21.90;52.90;;;;;;466589;254;1495;-39
2022/05/19 11:46:44;;;;;;;;;;;21.90;52.90;;;;;;464740;255;1193;-39
2022/05/19 11:55:45;;;;;;;;;;;21.90;53.00;;;;;;464798;254;2130;-39
2022/05/19 11:57:47;;;;;;;;;;;21.90;52.90;;;;;;466744;254;1392;-39
2022/05/19 11:59:50;;;;;;;;;;;22.00;52.80;;;;;;465268;255;1259;-39
2022/05/19 12:01:50;;;;;;;;;;;22.00;52.80;;;;;;466957;255;2241;-39
2022/05/19 12:03:51;;;;;;;;;;;21.90;52.90;;;;;;465455;255;1068;-39
2022/05/19 12:05:53;;;;;;;;;;;21.90;53.00;;;;;;467056;254;1213;-39
2022/05/19 12:07:54;;;;;;;;;;;21.90;53.20;;;;;;464622;255;1420;-39
2022/05/19 12:09:59;;;;;;;;;;;22.00;53.10;;;;;;466444;255;1223;-39
2022/05/19 12:11:56;;;;;;;;;;;22.00;52.90;;;;;;464397;256;2188;-39
2022/05/19 12:13:58;;;;;;;;;;;22.00;52.90;;;;;;466522;254;1186;-39
2022/05/19 12:15:59;;;;;;;;;;;22.00;52.90;;;;;;464641;255;2212;-40
2022/05/19 12:18:00;;;;;;;;;;;22.00;52.90;;;;;;466469;255;1335;-39
2022/05/19 12:20:03;;;;;;;;;;;22.00;53.00;;;;;;464806;255;1216;-39